This is the latest recevied weather packets stored in our database for station/object K5RCT-13. If no packets are shown the sender has not sent any weather packets the latest 10 day(s).
| Time | Temp. | Humidity | Pressure | Rain* | Wind** | Luminosity | Snow |
|---|---|---|---|---|---|---|---|
| 1788140677 | 84° F | 72% | 759.7 mmHg | 0 in | - | - | - |
| 1788140049 | 85° F | 71% | 759.7 mmHg | 0 in | - | - | - |
| 1788139420 | 85° F | 70% | 759.4 mmHg | 0 in | - | - | - |
| 1788138790 | 86° F | 69% | 759.7 mmHg | 0 in | - | - | - |
| 1788138161 | 87° F | 67% | 759.7 mmHg | 0 in | - | - | - |
| 1788137533 | 87° F | 66% | 759.7 mmHg | 0 in | - | - | - |
| 1788136903 | 88° F | 64% | 759.7 mmHg | 0 in | - | - | - |
| 1788136274 | 89° F | 62% | 759.4 mmHg | 0 in | - | - | - |
| 1788135646 | 90° F | 60% | 759.4 mmHg | 0 in | - | - | - |
| 1788135017 | 91° F | 58% | 759.4 mmHg | 0 in | - | - | - |
| 1788134388 | 92° F | 57% | 759.4 mmHg | 0 in | - | - | - |
| 1788133758 | 93° F | 55% | 759.4 mmHg | 0 in | - | - | - |
| 1788133130 | 94° F | 52% | 759.4 mmHg | 0 in | - | - | - |
| 1788132501 | 97° F | 48% | 759.4 mmHg | 0 in | - | - | - |
| 1788131871 | 99° F | 45% | 759.2 mmHg | 0 in | - | - | - |
| 1788131243 | 101° F | 43% | 759.2 mmHg | 0 in | - | - | - |
| 1788130614 | 101° F | 43% | 759.2 mmHg | 0 in | - | - | - |
| 1788129984 | 100° F | 43% | 759.4 mmHg | 0 in | - | - | - |
| 1788129355 | 102° F | 42% | 759.2 mmHg | 0 in | - | - | - |
| 1788128727 | 102° F | 42% | 759.2 mmHg | 0 in | - | - | - |
| 1788128098 | 102° F | 42% | 759 mmHg | 0 in | - | - | - |
| 1788127468 | 100° F | 44% | 759.2 mmHg | 0 in | - | - | - |
| 1788126839 | 101° F | 42% | 759.2 mmHg | 0 in | - | - | - |
| 1788126211 | 99° F | 46% | 759.2 mmHg | 0 in | - | - | - |
| 1788125581 | 99° F | 43% | 759.2 mmHg | 0 in | - | - | - |
* Rain since midnight (hover to see other rain measurements)
** Current wind speed in m/s (hover to see current wind gust speed)